Time;durP1;ratioP1;P1;durP2;ratioP2;P2;SDS_P1;SDS_P2;PMS_P1;PMS_P2;Temp;Humidity;BMP_temperature;BMP_pressure;BME280_temperature;BME280_humidity;BME280_pressure;Samples;Min_cycle;Max_cycle;Signal;HPM_P1;HPM_P2
2021/09/25 06:56:59;;;;;;;2.07;0.97;;;;;;;10.35;74.80;99482.03;370824;141;869241;-61
2021/09/25 06:58:01;;;;;;;5.53;1.03;;;;;;;10.32;74.88;99481.23;361714;147;858911;-60
2021/09/25 06:59:03;;;;;;;2.58;0.89;;;;;;;10.36;74.42;99485.48;362822;147;856447;-60
2021/09/25 07:00:05;;;;;;;2.21;0.85;;;;;;;10.36;74.42;99485.48;361063;146;863941;-60
2021/09/25 07:01:07;;;;;;;1.35;0.65;;;;;;;10.40;74.08;99489.77;361924;146;856196;-59
2021/09/25 07:02:09;;;;;;;2.85;1.35;;;;;;;10.47;74.09;99496.56;354818;150;856710;-59
2021/09/25 07:03:11;;;;;;;4.21;0.80;;;;;;;10.63;73.45;99484.26;354606;147;856509;-60
2021/09/25 07:04:13;;;;;;;3.01;0.55;;;;;;;10.73;73.13;99492.72;362498;146;863656;-61
2021/09/25 07:05:14;;;;;;;9.24;1.77;;;;;;;10.96;73.25;99484.58;361733;147;856643;-60
2021/09/25 07:06:16;;;;;;;1.84;0.64;;;;;;;11.18;71.93;99478.19;363917;147;864191;-61
2021/09/25 07:07:18;;;;;;;3.25;0.84;;;;;;;11.42;72.00;99488.98;363562;147;856336;-60
2021/09/25 07:08:20;;;;;;;3.41;0.86;;;;;;;11.67;71.64;99491.96;362387;146;864029;-61
2021/09/25 07:09:22;;;;;;;2.91;1.13;;;;;;;11.92;70.21;99488.87;362661;147;863965;-64
2021/09/25 07:10:24;;;;;;;3.72;0.94;;;;;;;12.18;70.44;99490.08;362281;147;864083;-61
2021/09/25 07:11:25;;;;;;;4.80;1.01;;;;;;;12.44;69.85;99486.04;362299;146;856145;-60
2021/09/25 07:12:27;;;;;;;2.95;0.75;;;;;;;12.62;66.94;99484.77;362120;146;863480;-61
2021/09/25 07:13:29;;;;;;;4.01;1.15;;;;;;;12.79;66.68;99493.00;365403;147;863875;-60
2021/09/25 07:14:31;;;;;;;2.83;0.81;;;;;;;12.62;65.41;99482.17;362672;147;863417;-60
2021/09/25 07:15:32;;;;;;;5.60;0.87;;;;;;;12.83;65.34;99491.20;363037;146;864478;-60
2021/09/25 07:16:35;;;;;;;3.07;0.97;;;;;;;12.85;64.67;99492.02;361251;147;864710;-60
2021/09/25 07:17:37;;;;;;;6.64;1.16;;;;;;;13.00;64.88;99494.23;361307;147;856239;-60
2021/09/25 07:18:39;;;;;;;2.11;0.72;;;;;;;13.15;65.25;99492.97;362434;146;856408;-60
2021/09/25 07:19:41;;;;;;;7.15;1.40;;;;;;;13.22;64.35;99485.00;361963;147;863788;-61
2021/09/25 07:20:43;;;;;;;4.09;0.88;;;;;;;13.34;64.46;99483.84;362734;147;856399;-60
2021/09/25 07:21:45;;;;;;;2.36;1.03;;;;;;;13.14;63.42;99491.26;362492;146;856609;-61
2021/09/25 07:22:51;;;;;;;4.75;0.97;;;;;;;13.08;63.58;99496.61;361245;146;856179;-61
2021/09/25 07:23:50;;;;;;;5.10;1.18;;;;;;;13.04;63.91;99505.38;362132;147;863570;-61
2021/09/25 07:24:54;;;;;;;8.94;1.24;;;;;;;12.92;64.26;99498.77;362750;146;864282;-60
2021/09/25 07:25:56;;;;;;;2.32;1.00;;;;;;;13.17;65.05;99492.94;362822;147;863707;-59
2021/09/25 07:26:59;;;;;;;3.28;0.91;;;;;;;13.36;63.42;99495.05;359573;147;863286;-61
2021/09/25 07:28:00;;;;;;;2.61;1.03;;;;;;;13.47;63.35;99492.20;360864;147;863521;-61
2021/09/25 07:29:03;;;;;;;4.19;1.13;;;;;;;13.41;62.64;99490.58;363964;147;856892;-61
2021/09/25 07:30:06;;;;;;;4.51;1.12;;;;;;;13.42;63.45;99493.19;364792;147;856130;-61
2021/09/25 07:31:09;;;;;;;3.80;1.18;;;;;;;13.65;63.45;99494.30;364100;147;856144;-60
2021/09/25 07:32:11;;;;;;;4.12;1.23;;;;;;;13.85;63.46;99500.69;363475;147;864108;-60
2021/09/25 07:33:13;;;;;;;3.55;0.96;;;;;;;13.83;61.60;99498.14;363410;146;857549;-60
2021/09/25 07:34:14;;;;;;;5.00;1.19;;;;;;;13.87;62.16;99496.29;360930;147;856807;-61
2021/09/25 07:35:16;;;;;;;5.26;1.52;;;;;;;;;;363630;147;863682;-61
2021/09/25 07:36:18;;;;;;;5.51;1.34;;;;;;;;;;363348;147;864064;-61
2021/09/25 07:37:19;;;;;;;5.25;1.29;;;;;;;;;;364377;146;863955;-60
2021/09/25 07:38:21;;;;;;;5.74;1.48;;;;;;;;;;363827;147;863761;-61
2021/09/25 07:39:22;;;;;;;3.22;0.96;;;;;;;;;;361785;147;857013;-61
2021/09/25 07:40:24;;;;;;;13.11;1.23;;;;;;;;;;361357;146;856672;-60
2021/09/25 07:41:26;;;;;;;4.66;1.22;;;;;;;;;;361997;147;863576;-61
2021/09/25 07:42:27;;;;;;;4.19;1.17;;;;;;;;;;366004;147;863963;-61
2021/09/25 07:43:29;;;;;;;2.41;0.86;;;;;;;;;;364138;147;856601;-61
2021/09/25 07:44:31;;;;;;;3.31;1.39;;;;;;;;;;364572;147;857054;-61
2021/09/25 07:45:32;;;;;;;7.11;1.28;;;;;;;;;;361401;147;857041;-60
2021/09/25 07:46:34;;;;;;;5.08;1.54;;;;;;;;;;363910;147;864365;-60
2021/09/25 07:47:36;;;;;;;3.06;0.90;;;;;;;;;;364242;146;864109;-61
2021/09/25 07:48:37;;;;;;;4.99;1.29;;;;;;;;;;363715;147;863787;-61
2021/09/25 07:49:39;;;;;;;2.96;1.02;;;;;;;;;;364067;147;863542;-61
2021/09/25 07:50:41;;;;;;;3.95;1.33;;;;;;;;;;364185;146;856816;-60
2021/09/25 07:51:42;;;;;;;4.25;1.04;;;;;;;;;;360453;146;856179;-60
2021/09/25 07:52:44;;;;;;;6.19;1.23;;;;;;;;;;361433;147;863584;-60
2021/09/25 07:53:46;;;;;;;6.35;1.56;;;;;;;;;;363502;146;857032;-61
2021/09/25 07:54:47;;;;;;;3.81;0.90;;;;;;;;;;364864;146;856350;-60
2021/09/25 07:55:49;;;;;;;7.45;1.44;;;;;;;;;;359656;146;856522;-60
2021/09/25 07:56:51;;;;;;;9.25;1.19;;;;;;;;;;359235;148;856655;-61
2021/09/25 07:57:52;;;;;;;2.37;0.88;;;;;;;;;;359260;147;856577;-61
2021/09/25 07:58:54;;;;;;;3.69;1.39;;;;;;;;;;360020;147;856282;-60
2021/09/25 07:59:55;;;;;;;3.99;1.46;;;;;;;;;;355496;148;863590;-60
2021/09/25 08:00:57;;;;;;;5.04;1.33;;;;;;;;;;360300;147;856199;-60
2021/09/25 08:01:59;;;;;;;3.39;1.27;;;;;;;;;;359925;148;856794;-59
2021/09/25 08:03:01;;;;;;;3.21;1.11;;;;;;;;;;359878;148;863669;-59
2021/09/25 08:04:03;;;;;;;1.95;0.88;;;;;;;;;;358310;148;863275;-60
2021/09/25 08:05:04;;;;;;;6.34;1.46;;;;;;;;;;360105;147;856079;-61
2021/09/25 08:06:07;;;;;;;4.76;1.27;;;;;;;;;;359020;147;856223;-61
2021/09/25 08:07:08;;;;;;;3.05;1.05;;;;;;;;;;362891;148;863996;-60
2021/09/25 08:08:10;;;;;;;6.56;1.59;;;;;;;;;;360066;147;856205;-60
2021/09/25 08:09:11;;;;;;;6.59;1.17;;;;;;;;;;358555;148;856615;-60
2021/09/25 08:10:14;;;;;;;2.64;1.07;;;;;;;;;;354994;147;863757;-60
2021/09/25 08:11:15;;;;;;;4.97;1.76;;;;;;;;;;354395;148;864054;-60
2021/09/25 08:12:17;;;;;;;3.39;0.91;;;;;;;;;;357878;147;856371;-60
2021/09/25 08:13:18;;;;;;;3.50;1.09;;;;;;;;;;357732;147;856413;-60
2021/09/25 08:14:20;;;;;;;3.98;0.96;;;;;;;;;;360909;148;863662;-60
2021/09/25 08:15:21;;;;;;;3.96;1.01;;;;;;;;;;360321;147;856373;-60
2021/09/25 08:16:23;;;;;;;3.68;1.10;;;;;;;;;;359858;147;856311;-60
2021/09/25 08:17:25;;;;;;;2.50;1.00;;;;;;;;;;360207;147;863461;-61
2021/09/25 08:18:27;;;;;;;3.15;0.93;;;;;;;;;;357584;148;856167;-60
2021/09/25 08:19:28;;;;;;;3.60;1.15;;;;;;;;;;358372;147;856137;-60
2021/09/25 08:20:30;;;;;;;5.28;1.17;;;;;;;;;;358696;147;856281;-60
2021/09/25 08:21:32;;;;;;;1.80;0.87;;;;;;;;;;360731;148;856221;-60
2021/09/25 08:22:34;;;;;;;5.63;1.20;;;;;;;;;;359450;148;856169;-60
2021/09/25 08:23:35;;;;;;;3.77;1.00;;;;;;;;;;358624;147;856154;-60
2021/09/25 08:24:37;;;;;;;7.67;1.89;;;;;;;;;;360600;148;856116;-59
2021/09/25 08:25:38;;;;;;;4.86;1.21;;;;;;;;;;362795;148;856233;-59
2021/09/25 08:26:41;;;;;;;5.67;0.83;;;;;;;;;;359862;147;856280;-59
2021/09/25 08:27:43;;;;;;;8.06;1.04;;;;;;;;;;360631;147;863923;-60
2021/09/25 08:28:44;;;;;;;3.19;1.09;;;;;;;;;;360285;148;856236;-59
2021/09/25 08:29:46;;;;;;;3.24;1.21;;;;;;;;;;359604;147;856422;-61
2021/09/25 08:30:48;;;;;;;3.40;1.10;;;;;;;;;;359871;147;856164;-60
2021/09/25 08:31:49;;;;;;;6.71;1.43;;;;;;;;;;358820;147;863239;-61
2021/09/25 08:32:51;;;;;;;4.09;1.14;;;;;;;;;;360778;148;863562;-61
2021/09/25 08:33:53;;;;;;;4.17;1.31;;;;;;;;;;361387;147;856379;-61
2021/09/25 08:34:55;;;;;;;4.38;1.49;;;;;;;;;;359094;147;857157;-60
2021/09/25 08:35:56;;;;;;;4.44;1.28;;;;;;;;;;357635;148;863912;-60
2021/09/25 08:36:58;;;;;;;2.08;0.89;;;;;;;;;;360684;147;856641;-60
2021/09/25 08:38:00;;;;;;;5.52;0.94;;;;;;;;;;359793;147;856280;-62
2021/09/25 08:39:01;;;;;;;4.59;1.19;;;;;;;;;;360005;147;856435;-61
2021/09/25 08:40:03;;;;;;;3.59;1.16;;;;;;;;;;357872;148;863477;-60
2021/09/25 08:41:05;;;;;;;3.55;1.04;;;;;;;;;;357808;147;856352;-61
2021/09/25 08:42:07;;;;;;;3.82;1.02;;;;;;;;;;361009;148;856276;-59
2021/09/25 08:43:08;;;;;;;3.81;1.33;;;;;;;;;;356916;148;863378;-61
2021/09/25 08:44:10;;;;;;;2.03;1.14;;;;;;;;;;358614;148;863863;-61
2021/09/25 08:45:12;;;;;;;5.53;1.06;;;;;;;;;;358878;147;856972;-59
2021/09/25 08:46:14;;;;;;;4.77;1.00;;;;;;;;;;359294;147;856627;-62
2021/09/25 08:47:18;;;;;;;4.43;1.21;;;;;;;;;;357905;148;856504;-61
2021/09/25 08:48:20;;;;;;;4.42;0.95;;;;;;;;;;361222;147;857411;-62
2021/09/25 08:49:21;;;;;;;6.50;1.15;;;;;;;;;;359707;147;856947;-62
2021/09/25 08:50:23;;;;;;;3.04;1.06;;;;;;;;;;359302;148;856248;-60
2021/09/25 08:51:24;;;;;;;3.75;0.81;;;;;;;;;;358830;148;863321;-61
2021/09/25 08:52:27;;;;;;;3.62;0.99;;;;;;;;;;357016;147;863780;-62
2021/09/25 08:53:28;;;;;;;5.74;1.20;;;;;;;;;;358979;147;856268;-62
2021/09/25 08:54:30;;;;;;;5.56;1.14;;;;;;;;;;357910;148;856246;-61
2021/09/25 08:55:32;;;;;;;6.75;0.97;;;;;;;;;;359955;147;856629;-61
2021/09/25 08:56:34;;;;;;;5.75;1.16;;;;;;;;;;360063;147;856995;-61
2021/09/25 08:57:35;;;;;;;3.17;1.00;;;;;;;;;;358790;147;856193;-61
2021/09/25 08:58:37;;;;;;;4.64;1.16;;;;;;;;;;362123;148;857032;-60
2021/09/25 08:59:38;;;;;;;2.89;1.28;;;;;;;;;;360129;147;863578;-61
2021/09/25 09:00:42;;;;;;;5.30;1.11;;;;;;;;;;360442;147;856148;-59
2021/09/25 09:01:44;;;;;;;3.39;1.23;;;;;;;;;;362510;148;856140;-59
2021/09/25 09:02:46;;;;;;;4.51;1.16;;;;;;;;;;360538;147;856255;-60
2021/09/25 09:03:48;;;;;;;5.37;1.17;;;;;;;;;;361399;147;863834;-59
2021/09/25 09:04:50;;;;;;;6.00;1.06;;;;;;;;;;361336;147;856148;-60
2021/09/25 09:05:55;;;;;;;4.76;1.15;;;;;;;;;;352527;150;856287;-60
2021/09/25 09:06:57;;;;;;;7.30;1.46;;;;;;;;;;349155;152;856782;-60
2021/09/25 09:08:00;;;;;;;3.15;1.09;;;;;;;;;;353659;150;856846;-61
2021/09/25 09:09:03;;;;;;;4.23;1.34;;;;;;;;;;354431;151;864056;-61
2021/09/25 09:10:07;;;;;;;6.61;1.18;;;;;;;;;;351324;150;856374;-59
2021/09/25 09:11:09;;;;;;;3.44;1.55;;;;;;;;;;346174;153;863738;-63
2021/09/25 09:12:10;;;;;;;3.56;1.16;;;;;;;;;;348115;153;863446;-61
2021/09/25 09:13:12;;;;;;;4.61;1.71;;;;;;;;;;351116;152;856442;-62
2021/09/25 09:14:14;;;;;;;2.47;1.27;;;;;;;;;;351956;152;863743;-61
2021/09/25 09:15:16;;;;;;;6.96;1.33;;;;;;;;;;344043;153;856759;-61
2021/09/25 09:16:18;;;;;;;5.84;1.29;;;;;;;;;;344117;154;857274;-60
2021/09/25 09:17:23;;;;;;;5.56;1.37;;;;;;;;;;353184;150;863946;-61
2021/09/25 09:18:25;;;;;;;3.44;1.18;;;;;;;;;;357738;147;863778;-63
2021/09/25 09:19:28;;;;;;;6.82;1.51;;;;;;;;;;359767;147;856411;-59
2021/09/25 09:20:30;;;;;;;4.03;1.42;;;;;;;;;;359238;147;856723;-60
2021/09/25 09:21:32;;;;;;;4.55;1.49;;;;;;;;;;361850;147;856423;-59
2021/09/25 09:22:33;;;;;;;5.06;1.22;;;;;;;;;;360399;147;856237;-61
2021/09/25 09:23:40;;;;;;;2.19;1.33;;;;;;;;;;361630;148;856183;-61
2021/09/25 09:24:42;;;;;;;5.98;1.23;;;;;;;;;;357651;148;856828;-61
2021/09/25 09:25:44;;;;;;;2.51;1.16;;;;;;;;;;359076;147;856292;-62
2021/09/25 09:26:47;;;;;;;3.86;1.43;;;;;;;;;;360546;148;856126;-60
2021/09/25 09:27:48;;;;;;;5.24;1.84;;;;;;;;;;358933;148;863319;-60
2021/09/25 09:28:50;;;;;;;4.90;1.49;;;;;;;;;;359921;147;856143;-60
2021/09/25 09:30:07;;;;;;;6.71;1.84;;;;;;;;;;361012;147;863646;-61
2021/09/25 09:31:09;;;;;;;3.43;1.24;;;;;;;;;;363098;148;856503;-61
2021/09/25 09:32:15;;;;;;;5.49;1.40;;;;;;;;;;362101;147;856909;-60
2021/09/25 09:33:30;;;;;;;3.85;1.39;;;;;;;;;;359502;147;856605;-59
2021/09/25 09:34:36;;;;;;;2.47;1.21;;;;;;;;;;359996;148;856860;-60
2021/09/25 09:35:37;;;;;;;4.21;1.44;;;;;;;;;;360858;147;856992;-60
2021/09/25 09:36:41;;;;;;;4.87;1.40;;;;;;;;;;361432;147;856266;-60
2021/09/25 09:37:44;;;;;;;3.63;1.55;;;;;;;;;;361548;148;856206;-60
2021/09/25 09:38:50;;;;;;;3.42;1.45;;;;;;;;;;361328;147;863723;-61
2021/09/25 09:39:58;;;;;;;5.76;1.66;;;;;;;;;;360136;147;856294;-60
2021/09/25 09:41:00;;;;;;;6.59;1.72;;;;;;;;;;357370;147;856313;-60
2021/09/25 09:42:02;;;;;;;6.31;1.51;;;;;;;;;;359124;148;856216;-63
2021/09/25 09:43:03;;;;;;;6.31;1.67;;;;;;;;;;359256;147;864119;-62
2021/09/25 09:44:13;;;;;;;4.24;1.46;;;;;;;;;;359125;147;856212;-60
2021/09/25 09:45:20;;;;;;;6.43;1.67;;;;;;;;;;357133;148;856139;-62
2021/09/25 09:46:28;;;;;;;3.91;1.64;;;;;;;;;;356288;147;856924;-62
2021/09/25 09:47:29;;;;;;;2.95;1.14;;;;;;;;;;360903;147;856229;-60
2021/09/25 09:48:31;;;;;;;6.05;1.51;;;;;;;;;;359092;148;856271;-62
2021/09/25 09:49:34;;;;;;;3.16;1.65;;;;;;;;;;352064;151;857408;-61
2021/09/25 09:50:39;;;;;;;5.27;1.30;;;;;;;;;;351846;147;863557;-62
2021/09/25 09:51:51;;;;;;;3.22;1.26;;;;;;;;;;361460;147;856254;-62
2021/09/25 09:52:53;;;;;;;4.97;1.39;;;;;;;;;;359945;147;863374;-62
2021/09/25 09:53:55;;;;;;;3.31;1.55;;;;;;;;;;357675;147;856656;-62
2021/09/25 09:54:57;;;;;;;4.51;1.09;;;;;;;;;;359725;147;859888;-62
2021/09/25 09:56:17;;;;;;;4.13;1.37;;;;;;;;;;362145;147;856227;-59
2021/09/25 09:57:19;;;;;;;5.73;1.45;;;;;;;;;;359152;147;856471;-62
2021/09/25 09:58:20;;;;;;;4.24;1.53;;;;;;;;;;361716;147;856406;-62
2021/09/25 09:59:22;;;;;;;5.03;1.00;;;;;;;;;;363584;147;856285;-62
2021/09/25 10:00:24;;;;;;;2.94;0.96;;;;;;;;;;362549;147;856851;-62
2021/09/25 10:01:26;;;;;;;2.25;0.96;;;;;;;;;;363362;147;856671;-61
2021/09/25 10:02:27;;;;;;;5.29;1.36;;;;;;;;;;362762;146;856264;-62
2021/09/25 10:03:29;;;;;;;2.82;1.31;;;;;;;;;;362782;146;856635;-62
2021/09/25 10:04:30;;;;;;;2.98;1.25;;;;;;;;;;362073;147;856859;-62
2021/09/25 10:05:32;;;;;;;4.44;1.06;;;;;;;;;;363556;147;856437;-62
2021/09/25 10:06:36;;;;;;;2.95;1.03;;;;;;;;;;363508;147;856598;-62
2021/09/25 10:07:37;;;;;;;1.99;0.79;;;;;;;;;;362125;147;863931;-62
2021/09/25 10:08:39;;;;;;;6.51;0.99;;;;;;;;;;362675;147;856427;-62
2021/09/25 10:09:41;;;;;;;4.27;1.02;;;;;;;;;;362853;146;856252;-62
2021/09/25 10:10:42;;;;;;;2.64;0.91;;;;;;;;;;360141;147;856155;-62
2021/09/25 10:11:45;;;;;;;4.50;0.86;;;;;;;;;;362386;147;856225;-62
2021/09/25 10:12:46;;;;;;;3.29;0.90;;;;;;;;;;363811;146;856246;-62
2021/09/25 10:13:48;;;;;;;4.89;1.21;;;;;;;;;;360035;146;856144;-62
2021/09/25 10:14:50;;;;;;;4.57;0.86;;;;;;;;;;363877;147;856216;-62
2021/09/25 10:15:52;;;;;;;3.22;0.73;;;;;;;;;;363091;147;856399;-64
2021/09/25 10:16:54;;;;;;;4.37;0.99;;;;;;;;;;361769;146;856288;-63
2021/09/25 10:17:56;;;;;;;4.71;1.07;;;;;;;;;;362022;147;856352;-62
2021/09/25 10:18:57;;;;;;;3.31;1.06;;;;;;;;;;361129;147;856519;-62
2021/09/25 10:19:59;;;;;;;2.54;0.75;;;;;;;;;;362397;146;863324;-62
2021/09/25 10:21:01;;;;;;;2.15;0.99;;;;;;;;;;362001;147;856327;-62
2021/09/25 10:22:05;;;;;;;4.03;1.01;;;;;;;;;;361398;147;864212;-62
2021/09/25 10:23:07;;;;;;;3.33;1.16;;;;;;;;;;364699;147;856210;-62
2021/09/25 10:24:09;;;;;;;3.58;1.09;;;;;;;;;;362506;146;863892;-62
2021/09/25 10:25:11;;;;;;;5.35;1.05;;;;;;;;;;360790;147;863341;-62
2021/09/25 10:26:14;;;;;;;6.84;1.07;;;;;;;;;;359861;147;863810;-62
2021/09/25 10:27:17;;;;;;;5.36;1.21;;;;;;;;;;364670;146;856501;-62
2021/09/25 10:28:22;;;;;;;3.21;0.86;;;;;;;;;;360870;147;856560;-62
2021/09/25 10:29:24;;;;;;;5.37;1.25;;;;;;;;;;361852;147;863997;-64
2021/09/25 10:30:31;;;;;;;3.71;1.05;;;;;;;;;;363933;146;856650;-64
2021/09/25 10:31:32;;;;;;;5.14;1.07;;;;;;;;;;364672;146;856211;-64
2021/09/25 10:32:39;;;;;;;4.36;1.01;;;;;;;;;;362415;146;856117;-63
2021/09/25 10:33:42;;;;;;;2.50;0.86;;;;;;;;;;363739;147;863471;-62
2021/09/25 10:34:59;;;;;;;5.84;0.91;;;;;;;;;;365045;146;856384;-63
2021/09/25 10:36:00;;;;;;;3.13;0.82;;;;;;;;;;363417;147;856262;-63
2021/09/25 10:37:02;;;;;;;4.97;0.91;;;;;;;;;;363071;147;856506;-63
2021/09/25 10:38:04;;;;;;;4.01;0.80;;;;;;;;;;362108;147;858913;-63
2021/09/25 10:39:16;;;;;;;3.39;1.16;;;;;;;;;;362323;147;856202;-63
2021/09/25 10:40:20;;;;;;;3.52;1.20;;;;;;;;;;346096;147;856472;-63
2021/09/25 10:41:21;;;;;;;5.81;1.26;;;;;;;;;;363134;147;856363;-63
2021/09/25 10:42:23;;;;;;;4.61;1.17;;;;;;;;;;364651;146;856868;-63
2021/09/25 10:43:28;;;;;;;7.02;1.09;;;;;;;;;;361415;147;863559;-64
2021/09/25 10:44:30;;;;;;;4.19;1.04;;;;;;;;;;361547;146;856873;-63
2021/09/25 10:45:35;;;;;;;6.19;1.12;;;;;;;;;;363635;146;857652;-63
2021/09/25 10:46:38;;;;;;;4.84;1.13;;;;;;;;;;359972;146;856235;-63
2021/09/25 10:47:40;;;;;;;8.37;1.20;;;;;;;;;;365516;147;856518;-62
2021/09/25 10:48:51;;;;;;;4.41;1.36;;;;;;;;;;363018;147;864184;-63
2021/09/25 10:49:54;;;;;;;2.32;0.89;;;;;;;;;;361197;146;856189;-63
2021/09/25 10:50:58;;;;;;;3.89;1.27;;;;;;;;;;360852;147;856307;-63
2021/09/25 10:52:00;;;;;;;3.41;1.17;;;;;;;;;;363187;147;856151;-62
2021/09/25 10:53:09;;;;;;;2.91;1.05;;;;;;;;;;362954;147;856262;-63
2021/09/25 10:54:12;;;;;;;4.01;1.16;;;;;;;;;;364274;147;857306;-62
2021/09/25 10:55:24;;;;;;;5.25;1.21;;;;;;;;;;363170;148;856164;-63
2021/09/25 10:56:27;;;;;;;5.03;1.08;;;;;;;;;;363482;146;856203;-63
2021/09/25 10:57:30;;;;;;;4.90;1.36;;;;;;;;;;360725;147;856203;-63
2021/09/25 10:58:33;;;;;;;4.95;1.33;;;;;;;;;;364398;147;856535;-63
2021/09/25 10:59:35;;;;;;;3.65;1.23;;;;;;;;;;363727;147;856332;-62
2021/09/25 11:00:51;;;;;;;3.81;1.35;;;;;;;;;;361953;146;856887;-63
2021/09/25 11:01:55;;;;;;;7.03;1.54;;;;;;;;;;364291;147;856942;-62
2021/09/25 11:02:56;;;;;;;5.39;1.43;;;;;;;;;;362627;147;856771;-62
2021/09/25 11:03:59;;;;;;;4.46;1.31;;;;;;;;;;362269;146;861373;-62
2021/09/25 11:05:00;;;;;;;3.25;1.17;;;;;;;;;;365482;147;863536;-62
2021/09/25 11:06:02;;;;;;;3.31;1.49;;;;;;;;;;361751;147;856584;-62
2021/09/25 11:07:08;;;;;;;3.84;1.39;;;;;;;;;;362414;146;857157;-62
2021/09/25 11:08:12;;;;;;;5.74;1.56;;;;;;;;;;363470;146;856276;-62
2021/09/25 11:09:34;;;;;;;4.12;1.61;;;;;;;;;;363797;146;856158;-62
2021/09/25 11:10:55;;;;;;;3.99;1.50;;;;;;;;;;353122;147;856210;-61
2021/09/25 11:12:06;;;;;;;4.92;2.40;;;;;;;;;;347798;153;856668;-63
2021/09/25 11:13:08;;;;;;;7.32;1.76;;;;;;;;;;347054;154;856347;-63
2021/09/25 11:14:10;;;;;;;5.96;1.64;;;;;;;;;;349630;152;856316;-62
2021/09/25 11:15:26;;;;;;;8.81;1.71;;;;;;;;;;349454;151;861376;-62
2021/09/25 11:16:46;;;;;;;9.32;1.88;;;;;;;;;;345272;153;856222;-63
2021/09/25 11:17:48;;;;;;;6.51;2.06;;;;;;;;;;349366;152;856780;-64
2021/09/25 11:18:50;;;;;;;5.18;1.54;;;;;;;;;;350813;151;856985;-63
2021/09/25 11:20:02;;;;;;;4.74;1.44;;;;;;;;;;350659;151;863691;-63
2021/09/25 11:21:04;;;;;;;7.87;2.21;;;;;;;;;;349182;151;856167;-63
2021/09/25 11:22:10;;;;;;;5.55;1.60;;;;;;;;;;350295;152;856221;-62
2021/09/25 11:23:12;;;;;;;5.86;1.82;;;;;;;;;;350264;152;863785;-62
2021/09/25 11:24:13;;;;;;;7.41;1.99;;;;;;;;;;349796;152;856927;-62
2021/09/25 11:25:15;;;;;;;6.96;1.87;;;;;;;;;;342010;154;856566;-61
2021/09/25 11:26:17;;;;;;;8.79;1.90;;;;;;;;;;341258;154;857058;-62
2021/09/25 11:27:31;;;;;;;6.36;1.76;;;;;;;;;;334844;158;856730;-61
2021/09/25 11:28:33;;;;;;;6.47;1.86;;;;;;;;;;341403;154;856297;-60
2021/09/25 11:29:35;;;;;;;6.89;1.73;;;;;;;;;;343194;154;856991;-61
2021/09/25 11:30:38;;;;;;;8.80;2.41;;;;;;;;;;343402;154;856187;-61
2021/09/25 11:31:41;;;;;;;8.93;1.89;;;;;;;;;;343860;154;856831;-60
2021/09/25 11:32:44;;;;;;;12.89;2.57;;;;;;;;;;342081;154;856191;-60
2021/09/25 11:49:36;;;;;;;7.10;1.95;;;;;;;17.28;49.35;99542.75;372980;142;868639;-60
2021/09/25 11:50:47;;;;;;;12.61;2.35;;;;;;;17.19;50.21;99547.46;361703;145;859434;-61
2021/09/25 11:51:53;;;;;;;4.01;1.10;;;;;;;17.23;50.32;99542.97;363283;144;856863;-59
2021/09/25 11:52:59;;;;;;;6.98;1.63;;;;;;;17.31;49.52;99543.48;362037;147;856758;-60
2021/09/25 11:54:01;;;;;;;6.08;1.51;;;;;;;17.29;49.49;99544.45;362781;146;856425;-62
2021/09/25 11:55:03;;;;;;;8.05;1.89;;;;;;;17.35;49.17;99541.58;363084;145;856273;-67
2021/09/25 11:56:06;;;;;;;7.39;2.11;;;;;;;17.23;49.65;99545.58;364655;146;864363;-63
2021/09/25 11:57:19;;;;;;;12.29;2.69;;;;;;;17.23;49.65;99545.58;365329;145;856179;-63
2021/09/25 11:58:23;;;;;;;5.26;1.68;;;;;;;17.55;49.50;99551.20;363203;145;856615;-62
2021/09/25 11:59:26;;;;;;;10.37;2.16;;;;;;;17.51;48.57;99552.25;364202;144;856398;-61
2021/09/25 12:00:35;;;;;;;4.26;1.67;;;;;;;17.68;48.63;99541.06;362232;144;856225;-64
2021/09/25 12:01:36;;;;;;;8.34;1.66;;;;;;;17.68;48.63;99541.06;361766;145;857047;-63
2021/09/25 12:02:43;;;;;;;7.33;1.87;;;;;;;17.85;48.27;99540.30;364092;145;856945;-64
2021/09/25 12:03:44;;;;;;;8.78;2.07;;;;;;;17.63;48.28;99536.02;362510;145;856739;-62
2021/09/25 12:04:46;;;;;;;11.42;2.16;;;;;;;17.43;49.22;99533.41;362798;144;856282;-63
2021/09/25 12:05:52;;;;;;;7.21;1.89;;;;;;;17.41;48.50;99537.86;362610;144;863637;-64
2021/09/25 12:06:58;;;;;;;4.90;1.31;;;;;;;17.38;47.79;99533.59;363171;147;863713;-62
2021/09/25 12:08:00;;;;;;;5.37;1.89;;;;;;;17.26;47.73;99536.73;358942;147;856302;-62
2021/09/25 12:09:01;;;;;;;7.18;2.16;;;;;;;17.15;47.83;99526.74;356001;147;864415;-62
2021/09/25 12:10:04;;;;;;;5.64;2.01;;;;;;;17.12;47.85;99539.95;358040;147;856489;-61
2021/09/25 12:11:06;;;;;;;6.89;1.85;;;;;;;;;;358294;147;864036;-63
2021/09/25 12:12:08;;;;;;;8.58;1.76;;;;;;;;;;358285;147;856742;-64
2021/09/25 12:13:10;;;;;;;10.96;2.99;;;;;;;;;;358629;147;857359;-65
2021/09/25 12:14:11;;;;;;;8.11;2.16;;;;;;;;;;357774;147;863786;-61
2021/09/25 12:15:15;;;;;;;8.33;2.38;;;;;;;;;;357152;147;856861;-62
2021/09/25 12:16:17;;;;;;;10.63;2.01;;;;;;;;;;356657;147;856732;-62
2021/09/25 12:17:19;;;;;;;10.69;2.17;;;;;;;;;;358463;148;863966;-62
2021/09/25 12:18:21;;;;;;;7.74;2.33;;;;;;;;;;356959;148;856760;-62
2021/09/25 12:19:24;;;;;;;7.64;2.01;;;;;;;;;;357978;147;856670;-63
2021/09/25 12:20:30;;;;;;;7.25;2.18;;;;;;;;;;357297;147;856226;-66
2021/09/25 12:21:31;;;;;;;8.71;2.33;;;;;;;;;;356812;147;856281;-62
2021/09/25 12:22:32;;;;;;;6.79;1.89;;;;;;;;;;357637;147;856895;-61
2021/09/25 12:23:41;;;;;;;9.49;2.39;;;;;;;;;;356509;147;863807;-62
2021/09/25 12:24:43;;;;;;;8.23;1.98;;;;;;;;;;356916;147;863821;-61
2021/09/25 12:25:44;;;;;;;8.31;2.39;;;;;;;;;;358512;147;856876;-62
2021/09/25 12:26:47;;;;;;;9.61;2.64;;;;;;;;;;356857;147;861381;-62
2021/09/25 12:27:49;;;;;;;10.09;2.25;;;;;;;;;;356544;147;863729;-60
2021/09/25 12:28:51;;;;;;;8.40;2.19;;;;;;;;;;356063;148;856535;-62
2021/09/25 12:29:53;;;;;;;8.49;2.10;;;;;;;;;;355724;147;856940;-62
2021/09/25 12:30:56;;;;;;;9.13;1.93;;;;;;;;;;358767;147;856345;-61
2021/09/25 12:31:58;;;;;;;7.32;2.17;;;;;;;;;;357719;147;856374;-62
2021/09/25 12:33:00;;;;;;;13.33;2.73;;;;;;;;;;357104;150;856265;-62
2021/09/25 12:34:04;;;;;;;10.82;2.63;;;;;;;;;;356955;147;863772;-63
2021/09/25 12:35:21;;;;;;;8.65;2.30;;;;;;;;;;355679;147;856328;-62
2021/09/25 12:36:27;;;;;;;7.75;2.08;;;;;;;;;;357619;147;857230;-61
2021/09/25 12:37:28;;;;;;;6.23;2.21;;;;;;;;;;358013;148;856719;-61
2021/09/25 12:38:32;;;;;;;8.08;2.13;;;;;;;;;;357419;147;856283;-60
2021/09/25 12:39:35;;;;;;;6.72;2.04;;;;;;;;;;356575;147;863787;-61
2021/09/25 12:40:38;;;;;;;8.01;2.42;;;;;;;;;;356289;149;856382;-62
2021/09/25 12:41:42;;;;;;;7.78;2.41;;;;;;;;;;357279;147;856257;-61
2021/09/25 12:42:43;;;;;;;8.51;2.37;;;;;;;;;;354064;149;856259;-62
2021/09/25 12:43:46;;;;;;;7.41;2.00;;;;;;;;;;357999;147;856227;-60
2021/09/25 12:44:47;;;;;;;11.12;2.42;;;;;;;;;;357892;147;863791;-61
2021/09/25 12:46:07;;;;;;;6.81;2.79;;;;;;;;;;351111;150;857012;-62
2021/09/25 12:47:09;;;;;;;10.84;2.53;;;;;;;;;;352249;150;857027;-60
2021/09/25 12:48:14;;;;;;;8.89;3.02;;;;;;;;;;356708;147;857208;-60
2021/09/25 12:49:17;;;;;;;9.87;2.77;;;;;;;;;;357427;147;856296;-59
2021/09/25 12:50:21;;;;;;;7.82;2.22;;;;;;;;;;351986;151;856754;-61
2021/09/25 12:51:28;;;;;;;9.24;2.53;;;;;;;;;;353508;148;856568;-61
2021/09/25 12:52:30;;;;;;;7.48;2.34;;;;;;;;;;354375;149;857284;-62
2021/09/25 12:53:32;;;;;;;7.56;2.19;;;;;;;;;;355485;150;857497;-61
2021/09/25 12:54:35;;;;;;;8.92;2.26;;;;;;;;;;354686;148;856327;-62
2021/09/25 12:55:37;;;;;;;9.26;2.62;;;;;;;;;;354168;150;863736;-62
2021/09/25 12:56:48;;;;;;;9.20;2.18;;;;;;;;;;347757;153;856618;-61
2021/09/25 12:58:00;;;;;;;9.31;1.91;;;;;;;;;;347163;152;856274;-61
2021/09/25 12:59:02;;;;;;;5.96;2.05;;;;;;;;;;345914;153;856277;-61
2021/09/25 13:00:04;;;;;;;9.52;2.81;;;;;;;;;;345435;153;856621;-61
2021/09/25 13:01:06;;;;;;;12.76;2.69;;;;;;;;;;339141;156;863774;-63
2021/09/25 13:02:14;;;;;;;7.74;2.74;;;;;;;;;;340334;155;863770;-63
2021/09/25 13:03:12;;;;;;;8.91;3.28;;;;;;;;;;344472;154;856252;-63
2021/09/25 13:04:20;;;;;;;6.72;2.46;;;;;;;;;;339519;156;857674;-63
2021/09/25 13:05:22;;;;;;;8.83;2.39;;;;;;;;;;343547;153;863837;-62
2021/09/25 13:06:25;;;;;;;7.87;2.44;;;;;;;;;;340241;156;857103;-62
2021/09/25 13:07:34;;;;;;;10.23;2.77;;;;;;;;;;340934;155;856203;-62
2021/09/25 13:08:35;;;;;;;8.41;2.15;;;;;;;;;;346057;153;856807;-61
2021/09/25 13:09:46;;;;;;;11.19;2.64;;;;;;;;;;343304;154;856904;-60